createdAt,value
2023-07-05T00:01:17.771Z,1.80
2023-07-05T00:03:47.755Z,1.90
2023-07-05T00:06:15.980Z,1.70
2023-07-05T00:08:43.472Z,1.50
2023-07-05T00:11:12.406Z,1.60
2023-07-05T00:13:43.010Z,1.40
2023-07-05T00:16:13.462Z,1.40
2023-07-05T00:18:42.618Z,1.40
2023-07-05T00:21:11.746Z,1.70
2023-07-05T00:23:45.397Z,1.60
2023-07-05T00:26:15.646Z,1.60
2023-07-05T00:28:45.582Z,1.80
2023-07-05T00:31:13.825Z,1.50
2023-07-05T00:33:41.487Z,1.50
2023-07-05T00:36:09.252Z,1.40
2023-07-05T00:38:36.719Z,1.30
2023-07-05T00:41:04.170Z,1.50
2023-07-05T00:43:31.849Z,1.30
2023-07-05T00:46:25.235Z,1.50
2023-07-05T00:48:56.049Z,1.40
2023-07-05T00:51:40.167Z,1.50
2023-07-05T00:54:08.191Z,1.60
2023-07-05T00:56:42.437Z,1.40
2023-07-05T00:59:15.334Z,1.50
2023-07-05T01:02:01.607Z,1.40
2023-07-05T01:04:36.433Z,1.20
2023-07-05T01:07:06.724Z,1.40
2023-07-05T01:09:34.475Z,1.30
2023-07-05T01:12:23.870Z,1.30
2023-07-05T01:15:09.966Z,1.20
2023-07-05T01:17:54.852Z,1.40
2023-07-05T01:20:48.168Z,1.40
2023-07-05T01:24:03.491Z,1.60
2023-07-05T01:26:47.680Z,1.30
2023-07-05T01:30:04.755Z,1.30
2023-07-05T01:32:43.062Z,1.50
2023-07-05T01:35:23.218Z,1.70
2023-07-05T01:37:53.128Z,1.20
2023-07-05T01:40:22.810Z,1.50
2023-07-05T01:43:03.117Z,1.40
2023-07-05T01:46:11.316Z,1.80
2023-07-05T01:48:39.581Z,1.50
2023-07-05T01:51:45.046Z,1.40
2023-07-05T01:54:37.974Z,1.80
2023-07-05T01:57:14.313Z,1.40
2023-07-05T02:00:09.917Z,1.40
2023-07-05T02:02:43.648Z,1.60
2023-07-05T02:05:13.179Z,1.50
2023-07-05T02:07:46.239Z,1.50
2023-07-05T02:10:15.309Z,1.30
2023-07-05T02:12:45.612Z,1.70
2023-07-05T02:15:15.476Z,1.50
2023-07-05T02:17:44.422Z,1.60
2023-07-05T02:20:12.945Z,1.40
2023-07-05T02:22:40.197Z,1.30
2023-07-05T02:25:08.617Z,1.40
2023-07-05T02:27:36.128Z,1.50
2023-07-05T02:30:06.726Z,1.70
2023-07-05T02:32:34.196Z,1.80
2023-07-05T02:35:04.741Z,2.00
2023-07-05T02:37:33.461Z,1.80
2023-07-05T02:40:02.531Z,2.00
2023-07-05T02:42:30.024Z,2.10
2023-07-05T02:44:57.440Z,1.60
2023-07-05T02:47:26.700Z,1.60
2023-07-05T02:49:55.894Z,1.80
2023-07-05T02:52:25.286Z,1.80
2023-07-05T02:54:54.826Z,2.00
2023-07-05T02:57:24.288Z,2.30
2023-07-05T02:59:52.074Z,2.10
2023-07-05T03:02:19.205Z,1.80
2023-07-05T03:04:49.475Z,1.90
2023-07-05T03:07:18.602Z,2.00
2023-07-05T03:09:50.145Z,1.70
2023-07-05T03:12:21.494Z,1.70
2023-07-05T03:14:50.312Z,1.60
2023-07-05T03:17:18.681Z,1.40
2023-07-05T03:19:45.921Z,1.60
2023-07-05T03:22:13.954Z,1.40
2023-07-05T03:24:41.260Z,1.50
2023-07-05T03:27:08.372Z,1.30
2023-07-05T03:29:37.023Z,1.20
2023-07-05T03:32:08.789Z,1.60
2023-07-05T03:34:38.172Z,1.40
2023-07-05T03:37:05.939Z,1.50
2023-07-05T03:39:33.058Z,1.70
2023-07-05T03:42:03.910Z,1.20
2023-07-05T03:44:31.126Z,1.40
2023-07-05T03:46:58.250Z,1.50
2023-07-05T03:49:25.309Z,1.50
2023-07-05T03:51:52.473Z,1.50
2023-07-05T03:54:19.666Z,1.40
2023-07-05T03:56:46.887Z,1.20
2023-07-05T03:59:13.949Z,1.50
2023-07-05T04:01:41.156Z,1.40
2023-07-05T04:04:09.285Z,1.50
2023-07-05T04:06:37.492Z,1.50
2023-07-05T04:09:05.770Z,1.40
2023-07-05T04:11:35.734Z,1.30
2023-07-05T04:14:04.182Z,1.20
2023-07-05T04:16:33.684Z,1.20
2023-07-05T04:19:02.156Z,1.30
2023-07-05T04:21:30.390Z,1.50
2023-07-05T04:23:59.680Z,1.30
2023-07-05T04:26:30.043Z,1.40
2023-07-05T04:28:57.750Z,1.50
2023-07-05T04:31:30.821Z,1.40
2023-07-05T04:34:01.061Z,1.30
2023-07-05T04:36:29.632Z,1.40
2023-07-05T04:38:59.141Z,1.10
2023-07-05T04:41:26.893Z,1.40
2023-07-05T04:43:54.197Z,1.40
2023-07-05T04:46:22.676Z,1.40
2023-07-05T04:48:49.411Z,1.20
2023-07-05T04:51:16.034Z,1.50
2023-07-05T04:53:42.616Z,1.70
2023-07-05T04:56:14.217Z,1.40
2023-07-05T04:58:41.741Z,1.30
2023-07-05T05:01:09.632Z,1.50
2023-07-05T05:03:36.383Z,1.50
2023-07-05T05:06:03.243Z,1.30
2023-07-05T05:08:29.894Z,1.50
2023-07-05T05:11:01.076Z,1.50
2023-07-05T05:13:31.869Z,1.30
2023-07-05T05:15:59.836Z,1.70
2023-07-05T05:18:32.316Z,1.10
2023-07-05T05:20:59.460Z,1.50
2023-07-05T05:23:27.389Z,1.50
2023-07-05T05:25:54.096Z,1.40
2023-07-05T05:28:20.772Z,1.30
2023-07-05T05:30:48.855Z,1.40
2023-07-05T05:33:17.613Z,1.20
2023-07-05T05:35:49.519Z,1.30
2023-07-05T05:38:20.367Z,1.20
2023-07-05T05:40:51.388Z,1.30
2023-07-05T05:43:20.078Z,1.00
2023-07-05T05:45:47.421Z,1.30
2023-07-05T05:48:14.042Z,1.30
2023-07-05T05:50:40.573Z,1.20
2023-07-05T05:53:07.214Z,1.90
2023-07-05T05:55:33.985Z,1.70
2023-07-05T05:58:00.393Z,1.50
2023-07-05T06:00:31.646Z,1.70
2023-07-05T06:02:58.180Z,1.70
2023-07-05T06:05:25.935Z,1.50
2023-07-05T06:07:54.123Z,1.70
2023-07-05T06:10:22.702Z,1.60
2023-07-05T06:12:49.295Z,1.60
2023-07-05T06:15:16.280Z,1.90
2023-07-05T06:17:43.332Z,1.90
2023-07-05T06:20:12.876Z,1.70
2023-07-05T06:22:39.691Z,1.50
2023-07-05T06:25:07.086Z,1.70
2023-07-05T06:27:34.611Z,1.90
2023-07-05T06:30:01.103Z,2.20
2023-07-05T06:32:27.739Z,2.10
2023-07-05T06:34:54.292Z,1.60
2023-07-05T06:37:20.793Z,2.10
2023-07-05T06:39:47.375Z,1.70
2023-07-05T06:42:14.120Z,1.90
2023-07-05T06:44:40.854Z,2.00
2023-07-05T06:47:07.357Z,1.80
2023-07-05T06:49:34.092Z,2.00
2023-07-05T06:52:00.604Z,1.80
2023-07-05T06:54:27.176Z,1.60
2023-07-05T06:56:53.679Z,1.40
2023-07-05T06:59:20.143Z,1.30
2023-07-05T07:01:46.977Z,1.40
2023-07-05T07:04:13.470Z,1.20
2023-07-05T07:06:39.937Z,1.50
2023-07-05T07:09:06.797Z,1.00
2023-07-05T07:11:33.365Z,1.00
2023-07-05T07:13:59.892Z,1.20
2023-07-05T07:16:26.510Z,1.20
2023-07-05T07:18:53.202Z,0.90
2023-07-05T07:21:19.937Z,1.00
2023-07-05T07:23:48.177Z,0.80
2023-07-05T07:26:23.289Z,1.00
2023-07-05T07:28:54.073Z,1.10
2023-07-05T07:31:25.882Z,0.90
2023-07-05T07:33:53.604Z,0.90
2023-07-05T07:36:30.197Z,1.10
2023-07-05T07:38:57.764Z,0.80
2023-07-05T07:41:29.038Z,0.90
2023-07-05T07:44:00.448Z,1.00
2023-07-05T07:46:30.189Z,1.00
2023-07-05T07:49:00.467Z,0.90
2023-07-05T07:54:02.199Z,1.50
2023-07-05T07:56:29.714Z,1.10
2023-07-05T07:58:59.380Z,1.20
2023-07-05T08:01:32.935Z,1.10
2023-07-05T08:04:03.674Z,1.10
2023-07-05T08:06:36.968Z,0.90
2023-07-05T08:09:06.228Z,1.20
2023-07-05T08:11:36.750Z,1.00
2023-07-05T08:14:03.854Z,1.20
2023-07-05T08:16:30.749Z,1.00
2023-07-05T08:18:58.550Z,0.80
2023-07-05T08:21:25.822Z,0.90
2023-07-05T08:23:52.766Z,1.00
2023-07-05T08:26:19.695Z,0.80
2023-07-05T08:28:46.569Z,1.10
2023-07-05T08:31:13.649Z,0.90
2023-07-05T08:33:42.047Z,0.90
2023-07-05T08:36:19.596Z,0.80
2023-07-05T08:38:52.459Z,0.70
2023-07-05T08:41:52.667Z,1.00
2023-07-05T08:44:28.251Z,0.60
2023-07-05T08:47:18.997Z,0.70
2023-07-05T08:50:23.282Z,0.80
2023-07-05T08:53:00.924Z,0.80
2023-07-05T08:55:43.192Z,0.90
2023-07-05T08:58:17.827Z,0.80
2023-07-05T09:00:54.593Z,0.70
2023-07-05T09:03:23.965Z,1.00
2023-07-05T09:06:49.669Z,1.20
2023-07-05T09:09:54.252Z,0.80
2023-07-05T09:12:55.373Z,1.10
2023-07-05T09:15:30.426Z,1.00
2023-07-05T09:18:10.641Z,0.90
2023-07-05T09:20:48.642Z,0.70
2023-07-05T09:23:30.698Z,0.80
2023-07-05T09:26:11.448Z,0.80
2023-07-05T09:28:52.520Z,1.10
2023-07-05T09:31:22.791Z,1.20
2023-07-05T09:34:07.305Z,1.00
2023-07-05T09:36:34.741Z,0.90
2023-07-05T09:39:29.330Z,1.00
2023-07-05T09:42:00.759Z,1.00
2023-07-05T09:44:28.016Z,1.20
2023-07-05T09:46:54.527Z,1.10
2023-07-05T09:49:21.269Z,1.20
2023-07-05T09:51:47.924Z,1.40
2023-07-05T09:54:32.285Z,1.30
2023-07-05T09:57:05.076Z,1.10
2023-07-05T09:59:37.041Z,1.30
2023-07-05T10:02:15.682Z,1.20
2023-07-05T10:04:49.603Z,1.40
2023-07-05T10:07:22.670Z,1.40
2023-07-05T10:10:11.189Z,1.10
2023-07-05T10:12:42.406Z,1.30
2023-07-05T10:15:24.119Z,1.20
2023-07-05T10:17:54.229Z,1.20
2023-07-05T10:20:38.342Z,1.30
2023-07-05T10:23:18.398Z,1.90
2023-07-05T10:25:47.289Z,1.70
2023-07-05T10:28:19.646Z,1.70
2023-07-05T10:30:57.394Z,1.60
2023-07-05T10:33:30.799Z,1.60
2023-07-05T10:36:11.571Z,1.60
2023-07-05T10:38:50.810Z,2.00
2023-07-05T10:41:19.908Z,1.90
2023-07-05T10:44:02.835Z,1.90
2023-07-05T10:46:30.174Z,2.10
2023-07-05T10:48:58.337Z,1.90
2023-07-05T10:51:33.902Z,2.20
2023-07-05T10:54:15.030Z,2.30
2023-07-05T10:56:44.885Z,1.90
2023-07-05T10:59:38.557Z,2.00
2023-07-05T11:02:23.940Z,2.30
2023-07-05T11:04:54.511Z,2.70
2023-07-05T11:07:22.319Z,2.30
2023-07-05T11:09:49.149Z,2.10
2023-07-05T11:12:24.447Z,2.70
2023-07-05T11:14:53.083Z,2.50
2023-07-05T11:17:38.244Z,2.10
2023-07-05T11:20:39.968Z,1.90
2023-07-05T11:23:12.457Z,2.40
2023-07-05T11:26:01.009Z,2.60
2023-07-05T11:28:39.293Z,3.00
2023-07-05T11:31:29.979Z,2.40
2023-07-05T11:34:21.780Z,2.90
2023-07-05T11:36:51.241Z,2.80
2023-07-05T11:39:48.910Z,2.80
2023-07-05T11:42:15.563Z,2.10
2023-07-05T11:45:04.831Z,2.70
2023-07-05T11:47:34.813Z,3.00
2023-07-05T11:50:07.845Z,2.70
2023-07-05T11:53:00.453Z,2.90
2023-07-05T11:55:35.483Z,2.80
2023-07-05T11:58:27.351Z,3.00
2023-07-05T12:01:03.011Z,3.30
2023-07-05T12:03:37.367Z,3.10
2023-07-05T12:06:21.660Z,3.30
2023-07-05T12:08:56.345Z,3.40
2023-07-05T12:11:42.667Z,3.50
2023-07-05T12:14:16.020Z,3.20
2023-07-05T12:16:44.094Z,3.20
2023-07-05T12:19:30.930Z,3.60
2023-07-05T12:22:05.161Z,3.60
2023-07-05T12:24:46.827Z,3.50
2023-07-05T12:27:29.022Z,4.20
2023-07-05T12:29:59.781Z,4.30
2023-07-05T12:32:29.520Z,4.80
2023-07-05T12:35:12.573Z,4.40
2023-07-05T12:37:39.362Z,4.30
2023-07-05T12:40:28.312Z,4.80
2023-07-05T12:43:06.741Z,4.90
2023-07-05T12:45:40.439Z,4.90
2023-07-05T12:48:26.066Z,4.70
2023-07-05T12:51:23.761Z,5.30
2023-07-05T12:53:57.385Z,4.70
2023-07-05T12:56:34.784Z,4.70
2023-07-05T12:59:34.577Z,5.10
2023-07-05T13:02:07.135Z,5.40
2023-07-05T13:04:38.204Z,5.50
2023-07-05T13:07:06.370Z,5.30
2023-07-05T13:09:36.872Z,5.60
2023-07-05T13:12:12.142Z,5.60
2023-07-05T13:14:44.736Z,6.10
2023-07-05T13:17:25.634Z,6.40
2023-07-05T13:20:20.564Z,5.60
2023-07-05T13:22:57.873Z,5.10
2023-07-05T13:25:43.299Z,5.90
2023-07-05T13:28:25.193Z,5.70
2023-07-05T13:30:57.542Z,6.00
2023-07-05T13:33:25.202Z,6.90
2023-07-05T13:35:52.664Z,6.30
2023-07-05T13:38:22.091Z,5.60
2023-07-05T13:41:04.275Z,5.60
2023-07-05T13:43:32.156Z,6.50
2023-07-05T13:46:00.798Z,6.70
2023-07-05T13:48:27.695Z,5.90
2023-07-05T13:50:54.656Z,6.40
2023-07-05T13:53:26.503Z,6.00
2023-07-05T13:55:52.987Z,6.10
2023-07-05T13:58:22.265Z,6.40
2023-07-05T14:00:48.731Z,6.70
2023-07-05T14:03:15.372Z,6.10
2023-07-05T14:05:42.641Z,6.70
2023-07-05T14:08:15.578Z,7.00
2023-07-05T14:10:49.273Z,6.70
2023-07-05T14:13:17.254Z,7.20
2023-07-05T14:15:45.813Z,6.90
2023-07-05T14:18:18.500Z,7.40
2023-07-05T14:20:48.244Z,6.60
2023-07-05T14:23:17.442Z,7.20
2023-07-05T14:25:49.414Z,7.70
2023-07-05T14:28:17.021Z,7.40
2023-07-05T14:30:45.720Z,7.50
2023-07-05T14:33:21.660Z,7.30
2023-07-05T14:35:48.416Z,7.70
2023-07-05T14:38:14.907Z,6.70
2023-07-05T14:40:45.172Z,7.20
2023-07-05T14:43:15.028Z,8.10
2023-07-05T14:45:44.493Z,7.30
2023-07-05T14:48:11.456Z,7.90
2023-07-05T14:50:37.923Z,7.40
2023-07-05T14:53:12.951Z,7.30
2023-07-05T14:55:39.651Z,7.50
2023-07-05T14:58:13.046Z,7.50
2023-07-05T15:00:40.857Z,7.30
2023-07-05T15:03:15.189Z,7.80
2023-07-05T15:05:41.765Z,7.10
2023-07-05T15:08:10.778Z,7.80
2023-07-05T15:10:37.315Z,7.50
2023-07-05T15:13:07.003Z,7.30
2023-07-05T15:15:39.365Z,7.50
2023-07-05T15:18:05.939Z,7.80
2023-07-05T15:20:35.291Z,8.20
2023-07-05T15:23:02.869Z,8.10
2023-07-05T15:25:29.782Z,7.80
2023-07-05T15:27:57.198Z,7.90
2023-07-05T15:30:27.107Z,7.30
2023-07-05T15:32:54.746Z,7.90
2023-07-05T15:35:24.998Z,8.20
2023-07-05T15:37:51.440Z,7.70
2023-07-05T15:40:20.117Z,8.10
2023-07-05T15:42:50.531Z,8.60
2023-07-05T15:45:19.689Z,8.50
2023-07-05T15:47:46.944Z,7.80
2023-07-05T15:50:17.810Z,8.20
2023-07-05T15:52:45.938Z,8.20
2023-07-05T15:55:13.600Z,7.90
2023-07-05T15:57:42.055Z,8.70
2023-07-05T16:00:23.347Z,8.70
2023-07-05T16:02:58.484Z,7.90
2023-07-05T16:05:37.560Z,8.20
2023-07-05T16:08:06.025Z,8.00
2023-07-05T16:10:39.032Z,8.10
2023-07-05T16:13:05.989Z,9.00
2023-07-05T16:15:37.522Z,8.50
2023-07-05T16:18:07.224Z,8.70
2023-07-05T16:20:36.665Z,8.10
2023-07-05T16:23:04.177Z,6.90
2023-07-05T16:25:31.878Z,7.10
2023-07-05T16:27:58.747Z,9.00
2023-07-05T16:30:25.509Z,7.90
2023-07-05T16:32:52.169Z,8.70
2023-07-05T16:35:19.158Z,8.80
2023-07-05T16:37:45.723Z,6.50
2023-07-05T16:40:12.414Z,8.30
2023-07-05T16:42:39.556Z,7.50
2023-07-05T16:45:08.402Z,6.80
2023-07-05T16:47:34.870Z,7.90
2023-07-05T16:50:01.440Z,8.00
2023-07-05T16:52:28.336Z,7.90
2023-07-05T16:54:55.171Z,9.00
2023-07-05T16:57:22.083Z,8.60
2023-07-05T16:59:48.684Z,9.50
2023-07-05T17:02:15.703Z,9.20
2023-07-05T17:04:42.293Z,9.40
2023-07-05T17:07:08.688Z,9.50
2023-07-05T17:09:35.604Z,9.50
2023-07-05T17:12:02.201Z,9.10
2023-07-05T17:14:28.734Z,8.60
2023-07-05T17:16:55.183Z,6.70
2023-07-05T17:19:22.741Z,7.00
2023-07-05T17:21:49.310Z,6.80
2023-07-05T17:24:22.484Z,7.90
2023-07-05T17:26:50.343Z,8.00
2023-07-05T17:29:18.219Z,7.90
2023-07-05T17:31:45.313Z,7.50
2023-07-05T17:34:11.908Z,6.30
2023-07-05T17:36:38.312Z,7.20
2023-07-05T17:39:04.865Z,7.40
2023-07-05T17:41:32.769Z,6.30
2023-07-05T17:43:59.805Z,5.90
2023-07-05T17:46:30.627Z,5.60
2023-07-05T17:49:01.128Z,5.30
2023-07-05T17:51:30.280Z,5.10
2023-07-05T17:53:56.861Z,6.20
2023-07-05T17:56:25.284Z,5.70
2023-07-05T17:58:55.653Z,5.70
2023-07-05T18:01:25.321Z,5.60
2023-07-05T18:03:52.140Z,5.80
2023-07-05T18:06:18.792Z,5.60
2023-07-05T18:08:49.261Z,5.20
2023-07-05T18:11:17.315Z,5.40
2023-07-05T18:13:44.475Z,5.20
2023-07-05T18:16:14.737Z,4.80
2023-07-05T18:18:42.649Z,5.20
2023-07-05T18:21:12.529Z,5.20
2023-07-05T18:23:40.734Z,5.10
2023-07-05T18:26:14.530Z,4.70
2023-07-05T18:28:44.628Z,4.80
2023-07-05T18:31:16.813Z,4.80
2023-07-05T18:33:43.597Z,4.80
2023-07-05T18:36:11.434Z,4.40
2023-07-05T18:38:38.911Z,4.80
2023-07-05T18:41:12.336Z,4.60
2023-07-05T18:43:41.981Z,4.70
2023-07-05T18:46:09.708Z,4.40
2023-07-05T18:48:36.929Z,4.90
2023-07-05T18:51:05.146Z,4.50
2023-07-05T18:53:32.785Z,4.80
2023-07-05T18:56:03.679Z,4.30
2023-07-05T18:58:32.562Z,4.90
2023-07-05T19:01:11.581Z,4.80
2023-07-05T19:03:38.232Z,4.90
2023-07-05T19:06:09.538Z,4.80
2023-07-05T19:08:38.021Z,4.60
2023-07-05T19:11:20.400Z,4.30
2023-07-05T19:13:49.650Z,4.60
2023-07-05T19:16:20.684Z,5.00
2023-07-05T19:18:48.584Z,4.80
2023-07-05T19:21:17.062Z,4.70
2023-07-05T19:23:48.904Z,6.30
2023-07-05T19:26:17.870Z,5.10
2023-07-05T19:28:49.895Z,5.30
2023-07-05T19:31:21.936Z,5.30
2023-07-05T19:33:50.760Z,5.20
2023-07-05T19:36:21.046Z,5.40
2023-07-05T19:38:49.310Z,5.10
2023-07-05T19:41:17.131Z,5.20
2023-07-05T19:43:44.921Z,5.60
2023-07-05T19:46:16.580Z,4.40
2023-07-05T19:48:43.376Z,5.60
2023-07-05T19:51:11.992Z,5.00
2023-07-05T19:53:38.573Z,5.00
2023-07-05T19:56:06.069Z,5.40
2023-07-05T19:58:33.317Z,5.60
2023-07-05T20:01:01.019Z,6.10
2023-07-05T20:03:27.857Z,5.90
2023-07-05T20:05:55.013Z,6.00
2023-07-05T20:08:21.724Z,5.90
2023-07-05T20:10:48.235Z,5.90
2023-07-05T20:13:16.350Z,5.70
2023-07-05T20:15:55.036Z,5.80
2023-07-05T20:18:21.972Z,5.90
2023-07-05T20:20:51.059Z,6.30
2023-07-05T20:23:23.781Z,6.00
2023-07-05T20:25:50.259Z,6.10
2023-07-05T20:28:19.416Z,6.60
2023-07-05T20:30:57.677Z,6.50
2023-07-05T20:33:27.088Z,5.70
2023-07-05T20:36:05.240Z,6.30
2023-07-05T20:38:32.076Z,5.20
2023-07-05T20:40:59.090Z,5.60
2023-07-05T20:43:26.030Z,5.40
2023-07-05T20:46:00.205Z,5.50
2023-07-05T20:48:28.422Z,5.30
2023-07-05T20:51:05.025Z,5.70
2023-07-05T20:53:31.751Z,5.20
2023-07-05T20:56:00.856Z,5.20
2023-07-05T20:58:33.773Z,5.10
2023-07-05T21:01:01.142Z,5.20
2023-07-05T21:03:30.644Z,5.30
2023-07-05T21:06:00.064Z,5.10
2023-07-05T21:08:28.418Z,5.70
2023-07-05T21:10:55.045Z,5.10
2023-07-05T21:13:22.794Z,5.50
2023-07-05T21:15:50.065Z,5.30
2023-07-05T21:18:16.603Z,6.00
2023-07-05T21:20:45.578Z,6.00
2023-07-05T21:23:14.359Z,6.20
2023-07-05T21:25:40.767Z,6.00
2023-07-05T21:28:07.332Z,6.20
2023-07-05T21:30:33.900Z,6.40
2023-07-05T21:33:00.476Z,5.90
2023-07-05T21:35:31.431Z,5.70
2023-07-05T21:37:58.613Z,5.90
2023-07-05T21:40:30.300Z,5.90
2023-07-05T21:42:56.970Z,5.70
2023-07-05T21:45:24.692Z,6.40
2023-07-05T21:47:51.618Z,6.60
2023-07-05T21:50:20.714Z,6.00
2023-07-05T21:52:50.515Z,5.70
2023-07-05T21:55:17.386Z,6.00
2023-07-05T21:57:46.898Z,5.90
2023-07-05T22:00:25.441Z,5.70
2023-07-05T22:02:56.253Z,5.60
2023-07-05T22:05:24.648Z,5.60
2023-07-05T22:07:51.380Z,5.60
2023-07-05T22:10:19.334Z,5.90
2023-07-05T22:12:54.525Z,6.40
2023-07-05T22:15:24.560Z,5.60
2023-07-05T22:17:55.082Z,5.40
2023-07-05T22:20:27.731Z,5.60
2023-07-05T22:22:54.423Z,5.80
2023-07-05T22:25:22.189Z,5.90
2023-07-05T22:27:49.207Z,5.70
2023-07-05T22:30:17.848Z,5.70
2023-07-05T22:32:46.072Z,5.70
2023-07-05T22:35:13.688Z,6.30
2023-07-05T22:37:40.704Z,5.80
2023-07-05T22:40:11.769Z,6.20
2023-07-05T22:42:42.735Z,5.40
2023-07-05T22:45:13.210Z,5.10
2023-07-05T22:47:41.743Z,5.10
2023-07-05T22:50:12.605Z,5.10
2023-07-05T22:52:39.404Z,4.80
2023-07-05T22:55:08.053Z,4.90
2023-07-05T22:57:35.328Z,5.30
2023-07-05T23:00:02.678Z,5.20
2023-07-05T23:02:29.245Z,5.30
2023-07-05T23:04:56.681Z,5.50
2023-07-05T23:07:23.246Z,4.90
2023-07-05T23:09:49.704Z,5.10
2023-07-05T23:12:18.737Z,5.50
2023-07-05T23:14:45.557Z,5.30
2023-07-05T23:17:13.276Z,5.40
2023-07-05T23:19:39.765Z,5.70
2023-07-05T23:22:06.305Z,5.50
2023-07-05T23:24:33.094Z,5.30
2023-07-05T23:27:02.078Z,5.80
2023-07-05T23:29:28.538Z,5.90
2023-07-05T23:31:56.144Z,5.70
2023-07-05T23:34:22.685Z,5.90
2023-07-05T23:36:49.239Z,6.00
2023-07-05T23:39:15.705Z,5.90
2023-07-05T23:41:42.561Z,5.90
2023-07-05T23:44:14.192Z,5.80
2023-07-05T23:46:40.902Z,5.60
2023-07-05T23:49:10.962Z,5.90
2023-07-05T23:51:38.880Z,5.90
2023-07-05T23:54:09.510Z,6.20
2023-07-05T23:56:46.688Z,5.60
2023-07-05T23:59:19.578Z,5.70
